Time;durP1;ratioP1;P1;durP2;ratioP2;P2;SDS_P1;SDS_P2;PMS_P1;PMS_P2;Temp;Humidity;BMP_temperature;BMP_pressure;BME280_temperature;BME280_humidity;BME280_pressure;Samples;Min_cycle;Max_cycle;Signal;HPM_P1;HPM_P2
2023/05/12 00:01:29;;;;;;;5.70;4.10;;;;;;;;;;6052036;28;20255;-68
2023/05/12 00:04:49;;;;;;;6.63;4.67;;;;;;;;;;6071889;28;20602;-67
2023/05/12 00:08:10;;;;;;;4.67;4.33;;;;;;;;;;6062983;29;20257;-68
2023/05/12 00:11:31;;;;;;;5.00;4.60;;;;;;;;;;6035037;29;20232;-68
2023/05/12 00:14:52;;;;;;;3.93;3.33;;;;;;;;;;6069138;28;20229;-68
2023/05/12 00:18:13;;;;;;;5.27;4.77;;;;;;;;;;6077191;28;20237;-69
2023/05/12 00:21:33;;;;;;;5.07;4.03;;;;;;;;;;6061755;28;20248;-68
2023/05/12 00:24:54;;;;;;;7.93;4.40;;;;;;;;;;6070887;28;20241;-67
2023/05/12 00:28:14;;;;;;;5.17;4.77;;;;;;;;;;6075067;29;20241;-67
2023/05/12 00:31:36;;;;;;;3.60;3.30;;;;;;;;;;6069444;29;20251;-67
2023/05/12 00:34:58;;;;;;;3.47;3.17;;;;;;;;;;6073342;28;20281;-67
2023/05/12 00:38:18;;;;;;;7.27;4.60;;;;;;;;;;6075622;29;20631;-66
2023/05/12 00:41:39;;;;;;;5.43;4.93;;;;;;;;;;6060549;29;20655;-68
2023/05/12 00:45:00;;;;;;;9.97;4.80;;;;;;;;;;6050040;29;20237;-67
2023/05/12 00:48:22;;;;;;;5.53;4.27;;;;;;;;;;6029782;29;20250;-66
2023/05/12 00:51:42;;;;;;;4.07;3.00;;;;;;;;;;6044951;29;20240;-67
2023/05/12 00:55:04;;;;;;;2.97;2.30;;;;;;;;;;6052322;28;20237;-65
2023/05/12 00:58:24;;;;;;;3.97;2.80;;;;;;;;;;6073677;28;20236;-67
2023/05/12 01:01:45;;;;;;;3.00;2.77;;;;;;;;;;6002648;29;20990;-67
2023/05/12 01:05:08;;;;;;;3.73;2.83;;;;;;;;;;6050347;29;20319;-67
2023/05/12 01:08:29;;;;;;;4.07;3.77;;;;;;;;;;6051456;29;20721;-67
2023/05/12 01:11:52;;;;;;;3.97;3.07;;;;;;;;;;6050485;29;20232;-67
2023/05/12 01:15:13;;;;;;;11.87;4.40;;;;;;;;;;6061106;29;20631;-66
2023/05/12 01:18:37;;;;;;;7.30;3.63;;;;;;;;;;6052504;29;20248;-68
2023/05/12 01:22:00;;;;;;;4.53;3.93;;;;;;;;;;6030337;29;20241;-67
2023/05/12 01:25:23;;;;;;;4.40;4.00;;;;;;;;;;6058472;29;20265;-68
2023/05/12 01:28:45;;;;;;;3.77;2.87;;;;;;;;;;6059125;29;20245;-68
2023/05/12 01:32:06;;;;;;;3.57;3.07;;;;;;;;;;6052988;29;20234;-68
2023/05/12 01:35:27;;;;;;;2.80;2.60;;;;;;;;;;6054227;29;20229;-67
2023/05/12 01:38:54;;;;;;;2.97;2.77;;;;;;;;;;6067754;29;20260;-67
2023/05/12 01:42:14;;;;;;;3.60;2.93;;;;;;;;;;6046306;29;20268;-66
2023/05/12 01:45:37;;;;;;;4.27;2.83;;;;;;;;;;6055324;29;20233;-67
2023/05/12 01:48:58;;;;;;;2.80;2.60;;;;;;;;;;6056290;29;20248;-67
2023/05/12 01:52:19;;;;;;;3.00;2.80;;;;;;;;;;6057094;29;20236;-66
2023/05/12 01:55:39;;;;;;;3.20;2.77;;;;;;;;;;6067034;29;20312;-67
2023/05/12 01:59:00;;;;;;;3.07;2.87;;;;;;;;;;6049423;29;20324;-68
2023/05/12 02:02:22;;;;;;;3.97;3.07;;;;;;;;;;6080827;28;20260;-67
2023/05/12 02:05:42;;;;;;;3.87;3.03;;;;;;;;;;6054566;29;20655;-67
2023/05/12 02:09:03;;;;;;;3.20;2.97;;;;;;;;;;6071566;28;20674;-66
2023/05/12 02:12:24;;;;;;;4.03;2.57;;;;;;;;;;6074473;29;20240;-67
2023/05/12 02:15:45;;;;;;;2.17;2.07;;;;;;;;;;6054943;29;20588;-67
2023/05/12 02:19:07;;;;;;;2.53;2.33;;;;;;;;;;6054003;29;20700;-67
2023/05/12 02:22:28;;;;;;;3.27;3.07;;;;;;;;;;6045497;29;20572;-66
2023/05/12 02:25:48;;;;;;;3.50;3.23;;;;;;;;;;6029703;29;20619;-67
2023/05/12 02:29:10;;;;;;;4.37;3.90;;;;;;;;;;6055974;29;20559;-67
2023/05/12 02:32:31;;;;;;;3.47;3.17;;;;;;;;;;6056644;29;20233;-66
2023/05/12 02:35:53;;;;;;;3.60;3.30;;;;;;;;;;6045290;29;20237;-68
2023/05/12 02:39:14;;;;;;;3.67;3.37;;;;;;;;;;6063842;29;20229;-66
2023/05/12 02:42:37;;;;;;;4.17;3.07;;;;;;;;;;6063589;29;20232;-68
2023/05/12 02:45:57;;;;;;;3.53;3.23;;;;;;;;;;6040836;29;20242;-67
2023/05/12 02:49:18;;;;;;;4.60;2.90;;;;;;;;;;6084460;29;20268;-67
2023/05/12 02:52:41;;;;;;;3.60;3.30;;;;;;;;;;6084317;29;20507;-67
2023/05/12 02:56:02;;;;;;;3.57;2.80;;;;;;;;;;6064026;29;20241;-66
2023/05/12 02:59:22;;;;;;;2.80;2.60;;;;;;;;;;6057802;29;20715;-67
2023/05/12 03:02:43;;;;;;;3.93;3.13;;;;;;;;;;6068148;29;20265;-67
2023/05/12 03:06:04;;;;;;;4.40;3.77;;;;;;;;;;6055939;29;20233;-66
2023/05/12 03:09:26;;;;;;;3.67;3.37;;;;;;;;;;6083690;28;20244;-67
2023/05/12 03:12:47;;;;;;;3.40;2.80;;;;;;;;;;6060895;29;20233;-67
2023/05/12 03:16:08;;;;;;;3.50;3.20;;;;;;;;;;6066384;29;20253;-67
2023/05/12 03:19:29;;;;;;;3.30;2.70;;;;;;;;;;6070797;28;20237;-68
2023/05/12 03:22:50;;;;;;;4.03;2.90;;;;;;;;;;6055893;29;20230;-66
2023/05/12 03:26:12;;;;;;;3.50;2.70;;;;;;;;;;6038364;29;20328;-66
2023/05/12 03:29:32;;;;;;;2.40;2.23;;;;;;;;;;6041566;29;20250;-68
2023/05/12 03:32:53;;;;;;;3.97;2.90;;;;;;;;;;6051263;29;20237;-67
2023/05/12 03:36:14;;;;;;;3.93;3.63;;;;;;;;;;6045166;29;20241;-67
2023/05/12 03:39:34;;;;;;;3.80;3.37;;;;;;;;;;6060524;29;20262;-68
2023/05/12 03:42:56;;;;;;;2.43;2.23;;;;;;;;;;6053085;29;20299;-67
2023/05/12 03:46:16;;;;;;;2.67;2.47;;;;;;;;;;6052336;29;20231;-66
2023/05/12 03:49:37;;;;;;;3.97;3.23;;;;;;;;;;6076230;28;20237;-67
2023/05/12 03:52:57;;;;;;;3.77;3.43;;;;;;;;;;6082213;28;20233;-67
2023/05/12 03:56:18;;;;;;;3.43;2.60;;;;;;;;;;6054610;29;20235;-67
2023/05/12 03:59:40;;;;;;;3.50;3.20;;;;;;;;;;6070779;29;20244;-68
2023/05/12 04:03:00;;;;;;;3.63;3.43;;;;;;;;;;6035796;29;20230;-67
2023/05/12 04:06:21;;;;;;;3.27;3.07;;;;;;;;;;6056998;29;20236;-66
2023/05/12 04:09:42;;;;;;;2.97;2.70;;;;;;;;;;6070503;29;20232;-67
2023/05/12 04:13:03;;;;;;;3.60;3.30;;;;;;;;;;6076536;29;20228;-67
2023/05/12 04:16:25;;;;;;;3.00;2.33;;;;;;;;;;6079978;28;20236;-67
2023/05/12 04:19:46;;;;;;;3.90;3.60;;;;;;;;;;6080138;29;20245;-67
2023/05/12 04:23:07;;;;;;;3.67;3.17;;;;;;;;;;6077217;28;20255;-68
2023/05/12 04:26:27;;;;;;;2.63;2.43;;;;;;;;;;6053773;29;20876;-67
2023/05/12 04:29:48;;;;;;;5.03;3.00;;;;;;;;;;6080779;29;20503;-67
2023/05/12 04:33:10;;;;;;;3.40;3.10;;;;;;;;;;6083475;29;20323;-67
2023/05/12 04:36:32;;;;;;;3.50;3.20;;;;;;;;;;6086226;28;20255;-67
2023/05/12 04:39:56;;;;;;;3.63;3.33;;;;;;;;;;6080208;29;20241;-67
2023/05/12 04:43:16;;;;;;;3.63;3.33;;;;;;;;;;6071908;29;22064;-68
2023/05/12 04:46:37;;;;;;;4.53;3.07;;;;;;;;;;6082351;28;20256;-67
2023/05/12 04:50:00;;;;;;;2.87;2.67;;;;;;;;;;6074406;29;20532;-68
2023/05/12 04:53:21;;;;;;;3.30;2.73;;;;;;;;;;6081197;28;20359;-67
2023/05/12 04:56:42;;;;;;;4.80;2.73;;;;;;;;;;6072200;28;20233;-67
2023/05/12 05:00:04;;;;;;;2.33;2.13;;;;;;;;;;6071145;29;20260;-67
2023/05/12 05:03:25;;;;;;;4.40;3.37;;;;;;;;;;6054625;29;20261;-69
2023/05/12 05:06:48;;;;;;;2.63;2.43;;;;;;;;;;6046668;28;20260;-67
2023/05/12 05:10:09;;;;;;;3.35;3.05;;;;;;;;;;6034428;29;20344;-67
2023/05/12 05:13:30;;;;;;;4.00;3.00;;;;;;;;;;6052185;29;20576;-68
2023/05/12 05:16:52;;;;;;;3.17;2.27;;;;;;;;;;6057465;29;20634;-67
2023/05/12 05:20:12;;;;;;;3.67;3.20;;;;;;;;;;6068997;28;20643;-67
2023/05/12 05:23:34;;;;;;;2.83;2.47;;;;;;;;;;6077779;29;20240;-67
2023/05/12 05:26:55;;;;;;;4.47;3.10;;;;;;;;;;6074003;28;20239;-68
2023/05/12 05:30:16;;;;;;;3.63;1.97;;;;;;;;;;6045879;29;20238;-68
2023/05/12 05:33:37;;;;;;;3.70;3.40;;;;;;;;;;6062777;29;20248;-68
2023/05/12 05:36:57;;;;;;;2.90;2.43;;;;;;;;;;6067953;29;20228;-68
2023/05/12 05:40:19;;;;;;;3.10;2.20;;;;;;;;;;6052939;28;20633;-68
2023/05/12 05:43:40;;;;;;;4.87;2.33;;;;;;;;;;6070732;29;20245;-67
2023/05/12 05:47:01;;;;;;;4.07;3.23;;;;;;;;;;6063086;28;20591;-66
2023/05/12 05:50:22;;;;;;;5.03;4.47;;;;;;;;;;6062390;29;20628;-66
2023/05/12 05:53:44;;;;;;;4.03;2.73;;;;;;;;;;6071064;29;20229;-65
2023/05/12 05:57:06;;;;;;;2.30;2.20;;;;;;;;;;6087960;28;20314;-68
2023/05/12 06:00:28;;;;;;;2.15;2.05;;;;;;;;;;6054650;28;20240;-68
2023/05/12 06:03:49;;;;;;;3.60;3.05;;;;;;;;;;6008575;29;20245;-69
2023/05/12 06:07:10;;;;;;;5.78;3.28;;;;;;;;;;6056900;28;20827;-69
2023/05/12 06:10:31;;;;;;;3.73;2.27;;;;;;;;;;6072194;28;20233;-69
2023/05/12 06:13:52;;;;;;;3.13;2.83;;;;;;;;;;6065817;28;20237;-69
2023/05/12 06:17:13;;;;;;;4.03;2.87;;;;;;;;;;6060633;29;20308;-69
2023/05/12 06:20:34;;;;;;;3.43;2.17;;;;;;;;;;6071618;29;20240;-68
2023/05/12 06:23:55;;;;;;;8.03;2.43;;;;;;;;;;6067847;29;20233;-68
2023/05/12 06:27:16;;;;;;;2.63;2.42;;;;;;;;;;6076905;29;20322;-68
2023/05/12 06:30:37;;;;;;;2.45;2.25;;;;;;;;;;6071685;29;20245;-69
2023/05/12 06:33:58;;;;;;;4.30;2.60;;;;;;;;;;6093062;29;20245;-67
2023/05/12 06:37:18;;;;;;;3.10;2.65;;;;;;;;;;6065813;28;20231;-67
2023/05/12 06:40:39;;;;;;;3.05;2.72;;;;;;;;;;6061491;29;20229;-69
2023/05/12 06:44:01;;;;;;;2.87;2.63;;;;;;;;;;6057167;29;20614;-67
2023/05/12 06:47:22;;;;;;;3.08;2.85;;;;;;;;;;6058661;29;20225;-67
2023/05/12 06:50:45;;;;;;;3.72;2.20;;;;;;;;;;6037910;29;20616;-68
2023/05/12 06:54:06;;;;;;;3.10;2.10;;;;;;;;;;6043345;29;20250;-70
2023/05/12 06:57:26;;;;;;;2.95;2.75;;;;;;;;;;6047822;29;20619;-66
2023/05/12 07:00:47;;;;;;;2.80;2.50;;;;;;;;;;6045877;29;20241;-68
2023/05/12 07:04:09;;;;;;;2.83;2.63;;;;;;;;;;6063477;29;20240;-67
2023/05/12 07:07:29;;;;;;;3.50;3.20;;;;;;;;;;6059355;29;20237;-67
2023/05/12 07:10:50;;;;;;;2.30;2.10;;;;;;;;;;6054673;29;20237;-67
2023/05/12 07:14:10;;;;;;;2.70;2.50;;;;;;;;;;6064765;29;20233;-67
2023/05/12 07:17:30;;;;;;;3.80;2.67;;;;;;;;;;6074463;28;20244;-68
2023/05/12 07:20:52;;;;;;;3.17;1.92;;;;;;;;;;6049090;29;20241;-67
2023/05/12 07:24:13;;;;;;;3.53;2.70;;;;;;;;;;6075835;28;20237;-68
2023/05/12 07:27:34;;;;;;;3.00;2.47;;;;;;;;;;6075599;29;20247;-68
2023/05/12 07:30:54;;;;;;;2.20;2.10;;;;;;;;;;6050344;28;20239;-68
2023/05/12 07:34:15;;;;;;;2.60;2.13;;;;;;;;;;6071649;29;20233;-69
2023/05/12 07:37:37;;;;;;;2.47;2.28;;;;;;;;;;6058133;29;20331;-68
2023/05/12 07:40:57;;;;;;;5.20;2.85;;;;;;;;;;6057863;29;20233;-67
2023/05/12 07:44:18;;;;;;;2.85;2.65;;;;;;;;;;6070009;29;20232;-68
2023/05/12 07:47:39;;;;;;;3.35;2.85;;;;;;;;;;6046091;29;20237;-68
2023/05/12 07:50:59;;;;;;;4.28;3.42;;;;;;;;;;6055844;29;20241;-68
2023/05/12 07:54:21;;;;;;;2.92;2.72;;;;;;;;;;6084916;29;20237;-68
2023/05/12 07:57:45;;;;;;;3.03;2.53;;;;;;;;;;5753704;29;7797559;-67
2023/05/12 08:01:07;;;;;;;4.47;2.53;;;;;;;;;;6054383;29;20624;-67
2023/05/12 08:04:28;;;;;;;3.42;2.60;;;;;;;;;;6070959;29;20248;-67
2023/05/12 08:07:49;;;;;;;2.38;2.20;;;;;;;;;;6078047;29;20253;-68
2023/05/12 08:11:11;;;;;;;2.42;2.22;;;;;;;;;;6051757;29;20248;-68
2023/05/12 08:14:32;;;;;;;2.60;2.35;;;;;;;;;;6069687;29;20631;-71
2023/05/12 08:17:52;;;;;;;3.53;1.88;;;;;;;;;;6046658;29;20623;-69
2023/05/12 08:21:13;;;;;;;3.03;2.63;;;;;;;;;;6040165;29;20269;-69
2023/05/12 08:24:33;;;;;;;2.72;2.53;;;;;;;;;;6053722;29;20230;-69
2023/05/12 08:27:56;;;;;;;6.30;2.83;;;;;;;;;;6042330;28;20256;-67
2023/05/12 08:31:17;;;;;;;2.67;2.47;;;;;;;;;;6058573;29;20236;-67
2023/05/12 08:34:37;;;;;;;2.72;2.20;;;;;;;;;;6079269;29;20233;-68
2023/05/12 08:37:58;;;;;;;3.22;2.53;;;;;;;;;;6055490;29;20324;-67
2023/05/12 08:41:20;;;;;;;3.28;2.88;;;;;;;;;;6060040;29;20236;-67
2023/05/12 08:44:42;;;;;;;3.30;3.03;;;;;;;;;;6081348;29;20241;-68
2023/05/12 08:48:04;;;;;;;3.10;2.58;;;;;;;;;;6078329;29;20235;-69
2023/05/12 08:51:25;;;;;;;2.55;2.35;;;;;;;;;;6061572;29;20236;-67
2023/05/12 08:54:50;;;;;;;2.00;1.90;;;;;;;;;;6081497;28;20241;-69
2023/05/12 08:58:11;;;;;;;2.97;2.67;;;;;;;;;;6086281;28;20275;-68
2023/05/12 09:01:35;;;;;;;3.58;2.17;;;;;;;;;;6034926;29;20328;-67
2023/05/12 09:04:56;;;;;;;3.47;2.67;;;;;;;;;;6062255;29;20225;-69
2023/05/12 09:08:16;;;;;;;4.53;2.42;;;;;;;;;;6035689;29;20237;-68
2023/05/12 09:11:37;;;;;;;3.63;1.92;;;;;;;;;;6058548;29;20637;-66
2023/05/12 09:14:59;;;;;;;2.55;2.35;;;;;;;;;;6049712;29;20564;-67
2023/05/12 09:18:21;;;;;;;2.22;2.10;;;;;;;;;;6084498;29;20611;-67
2023/05/12 09:21:41;;;;;;;2.45;2.25;;;;;;;;;;6071775;29;20232;-67
2023/05/12 09:25:14;;;;;;;2.40;2.22;;;;;;;;;;6078364;29;20252;-65
2023/05/12 09:28:35;;;;;;;2.60;2.40;;;;;;;;;;6079611;29;20324;-68
2023/05/12 09:31:57;;;;;;;3.05;1.80;;;;;;;;;;6072563;29;20224;-67
2023/05/12 09:35:19;;;;;;;2.17;1.98;;;;;;;;;;6078139;28;20241;-66
2023/05/12 09:38:40;;;;;;;2.15;1.58;;;;;;;;;;6081575;28;20237;-68
2023/05/12 09:42:00;;;;;;;2.38;2.15;;;;;;;;;;6059878;29;20236;-66
2023/05/12 09:45:21;;;;;;;5.68;2.33;;;;;;;;;;6069171;29;20562;-66
2023/05/12 09:48:42;;;;;;;1.98;1.63;;;;;;;;;;6083204;28;20348;-66
2023/05/12 09:52:04;;;;;;;3.35;2.38;;;;;;;;;;6076148;29;20573;-69
2023/05/12 09:55:24;;;;;;;2.28;2.05;;;;;;;;;;6064315;29;20487;-67
2023/05/12 09:58:47;;;;;;;2.70;2.20;;;;;;;;;;6083677;29;20269;-68
2023/05/12 10:02:09;;;;;;;2.45;2.25;;;;;;;;;;6074705;29;20235;-66
2023/05/12 10:05:30;;;;;;;3.42;2.10;;;;;;;;;;6068810;29;20233;-67
2023/05/12 10:08:54;;;;;;;2.38;2.17;;;;;;;;;;6052757;29;20324;-67
2023/05/12 10:12:16;;;;;;;2.38;2.28;;;;;;;;;;6056391;29;20228;-66
2023/05/12 10:15:36;;;;;;;2.30;2.15;;;;;;;;;;6059745;29;20228;-67
2023/05/12 10:18:58;;;;;;;3.03;2.83;;;;;;;;;;6062477;29;20324;-69
2023/05/12 10:22:20;;;;;;;4.80;1.98;;;;;;;;;;6082232;29;20255;-67
2023/05/12 10:25:42;;;;;;;2.42;2.22;;;;;;;;;;6071983;29;20229;-68
2023/05/12 10:29:03;;;;;;;3.35;2.28;;;;;;;;;;6053735;29;20238;-67
2023/05/12 10:32:23;;;;;;;2.17;2.08;;;;;;;;;;6054216;29;20251;-67
2023/05/12 10:35:45;;;;;;;2.28;1.90;;;;;;;;;;6055745;29;20232;-67
2023/05/12 10:39:05;;;;;;;1.52;1.42;;;;;;;;;;6062692;29;20233;-67
2023/05/12 10:42:28;;;;;;;1.90;1.80;;;;;;;;;;6086476;29;20232;-66
2023/05/12 10:46:05;;;;;;;2.25;2.08;;;;;;;;;;6054710;29;20241;-67
2023/05/12 10:49:32;;;;;;;2.42;2.30;;;;;;;;;;6045950;29;20636;-67
2023/05/12 10:52:53;;;;;;;3.65;2.35;;;;;;;;;;6067654;29;20248;-67
2023/05/12 10:56:21;;;;;;;1.85;1.60;;;;;;;;;;6037782;29;20256;-67
2023/05/12 10:59:49;;;;;;;2.85;2.00;;;;;;;;;;6060432;29;20272;-67
2023/05/12 11:03:11;;;;;;;2.33;1.83;;;;;;;;;;6063691;29;20244;-66
2023/05/12 11:06:32;;;;;;;4.22;2.38;;;;;;;;;;6068358;29;20239;-66
2023/05/12 11:09:53;;;;;;;4.68;1.65;;;;;;;;;;6080781;29;20517;-68
2023/05/12 11:13:13;;;;;;;2.88;2.35;;;;;;;;;;6055631;29;20257;-67
2023/05/12 11:16:41;;;;;;;2.15;1.88;;;;;;;;;;6047771;29;20237;-66
2023/05/12 11:20:02;;;;;;;2.42;1.95;;;;;;;;;;6076876;28;20244;-66
2023/05/12 11:23:27;;;;;;;1.88;1.73;;;;;;;;;;6088351;29;20325;-66
2023/05/12 11:26:50;;;;;;;2.08;1.70;;;;;;;;;;6072984;29;20236;-66
2023/05/12 11:30:11;;;;;;;2.38;2.17;;;;;;;;;;6066710;29;20233;-65
2023/05/12 11:33:33;;;;;;;2.13;1.92;;;;;;;;;;6084547;29;25582;-64
2023/05/12 11:36:54;;;;;;;2.70;2.28;;;;;;;;;;6078686;29;20243;-64
2023/05/12 11:40:15;;;;;;;3.25;1.70;;;;;;;;;;6071311;29;20245;-63
2023/05/12 11:43:36;;;;;;;1.60;1.42;;;;;;;;;;6079382;29;20252;-63
2023/05/12 11:46:57;;;;;;;1.75;1.65;;;;;;;;;;6070142;28;20236;-63
2023/05/12 11:50:23;;;;;;;4.82;1.90;;;;;;;;;;6073136;29;20635;-65
2023/05/12 11:53:43;;;;;;;1.58;1.48;;;;;;;;;;6085050;29;20236;-65
2023/05/12 11:57:04;;;;;;;6.93;2.97;;;;;;;;;;6074172;29;20240;-64
2023/05/12 12:00:32;;;;;;;2.15;2.03;;;;;;;;;;6067790;29;20257;-64
2023/05/12 12:03:53;;;;;;;1.52;1.42;;;;;;;;;;6018489;29;20233;-63
2023/05/12 12:07:15;;;;;;;2.50;2.30;;;;;;;;;;6038270;29;20245;-64
2023/05/12 12:10:36;;;;;;;1.80;1.70;;;;;;;;;;6070898;29;20327;-64
2023/05/12 12:13:57;;;;;;;2.78;2.35;;;;;;;;;;6058375;29;20237;-64
2023/05/12 12:17:17;;;;;;;2.78;2.03;;;;;;;;;;6055941;28;20244;-63
2023/05/12 12:20:38;;;;;;;1.73;1.63;;;;;;;;;;6048738;29;85325;-63
2023/05/12 12:24:31;;;;;;;2.90;2.05;;;;;;;28.65;33.95;101933.31;6236649;27;20740;-65
2023/05/12 12:27:52;;;;;;;2.75;1.90;;;;;;;27.76;32.73;101944.69;6209621;28;20232;-64
2023/05/12 12:31:13;;;;;;;2.58;2.35;;;;;;;27.32;33.34;101947.44;6235551;28;20243;-67
2023/05/12 12:34:34;;;;;;;2.15;1.90;;;;;;;26.17;33.30;101940.84;6273284;28;20243;-65
2023/05/12 12:37:54;;;;;;;3.40;2.08;;;;;;;25.40;34.20;101938.53;6251164;28;20236;-66
2023/05/12 12:41:16;;;;;;;2.92;1.90;;;;;;;25.23;34.87;101938.03;6257461;28;20388;-67
2023/05/12 12:44:38;;;;;;;1.75;1.65;;;;;;;24.72;34.86;101941.34;6267460;28;20258;-66
2023/05/12 12:47:58;;;;;;;7.40;2.17;;;;;;;24.28;35.46;101948.00;6255713;28;20231;-66
2023/05/12 12:51:19;;;;;;;2.45;2.25;;;;;;;28.26;31.82;101932.59;6244520;28;20542;-67
2023/05/12 12:54:40;;;;;;;1.73;1.63;;;;;;;32.67;25.90;101934.69;6269284;28;20228;-65
2023/05/12 12:58:03;;;;;;;2.28;2.00;;;;;;;34.16;24.07;101930.41;6245373;28;20235;-65
2023/05/12 13:01:23;;;;;;;3.47;2.03;;;;;;;34.27;23.40;101935.00;6253511;28;20989;-67
2023/05/12 13:04:47;;;;;;;3.38;3.10;;;;;;;34.71;22.89;101929.16;6263030;28;20737;-67
2023/05/12 13:08:08;;;;;;;2.72;2.53;;;;;;;34.45;22.05;101930.91;6255543;28;20232;-67
2023/05/12 13:11:30;;;;;;;2.47;2.25;;;;;;;34.31;21.73;101935.28;6269624;28;20493;-68
2023/05/12 13:14:52;;;;;;;2.75;1.80;;;;;;;35.15;21.72;101925.78;6272975;28;20231;-68
2023/05/12 13:18:13;;;;;;;2.33;2.13;;;;;;;35.89;21.22;101922.66;6262362;28;20799;-67
2023/05/12 13:21:33;;;;;;;2.85;2.65;;;;;;;35.79;20.82;101928.25;6264738;28;20605;-67
2023/05/12 13:24:54;;;;;;;3.03;2.83;;;;;;;35.49;20.00;101923.41;6264766;28;20219;-66
2023/05/12 13:28:15;;;;;;;1.58;1.40;;;;;;;35.15;20.44;101925.78;6268236;28;20228;-67
2023/05/12 13:31:40;;;;;;;2.97;1.65;;;;;;;33.36;21.48;101919.16;6267159;28;20223;-68
2023/05/12 13:35:01;;;;;;;2.25;2.10;;;;;;;33.78;21.19;101922.16;6258164;28;20251;-67
2023/05/12 13:38:22;;;;;;;3.63;2.38;;;;;;;33.72;21.20;101920.41;6250891;28;20303;-67
2023/05/12 13:41:43;;;;;;;3.10;1.90;;;;;;;33.09;21.25;101917.44;6251235;28;20235;-67
2023/05/12 13:45:09;;;;;;;2.58;2.38;;;;;;;32.70;21.91;101919.34;6258324;28;20477;-68
2023/05/12 13:48:31;;;;;;;1.77;1.45;;;;;;;32.87;22.43;101915.44;6245128;28;20224;-68
2023/05/12 13:51:52;;;;;;;1.85;1.75;;;;;;;33.04;22.51;101918.22;6249498;28;20314;-66
2023/05/12 13:55:12;;;;;;;4.68;4.35;;;;;;;33.45;22.46;101913.94;6262482;28;20226;-67
2023/05/12 13:58:33;;;;;;;6.05;5.00;;;;;;;32.43;23.13;101912.75;6249463;28;20227;-67
2023/05/12 14:01:53;;;;;;;5.90;1.98;;;;;;;31.33;23.12;101917.97;6243563;28;20240;-67
2023/05/12 14:05:16;;;;;;;2.10;1.90;;;;;;;31.15;24.04;101907.00;6246175;28;20264;-66
2023/05/12 14:08:37;;;;;;;2.95;2.75;;;;;;;30.05;24.87;101919.94;6245544;28;20605;-67
2023/05/12 14:11:57;;;;;;;3.75;2.63;;;;;;;30.38;25.72;101914.69;6252936;28;20605;-67
2023/05/12 14:15:18;;;;;;;2.58;2.38;;;;;;;30.23;25.34;101910.69;6261110;28;20231;-66
2023/05/12 14:18:39;;;;;;;4.60;2.63;;;;;;;29.37;26.00;101904.72;6231122;28;20237;-66
2023/05/12 14:22:01;;;;;;;3.70;1.95;;;;;;;28.83;26.98;101908.38;6244054;28;20224;-67
2023/05/12 14:25:22;;;;;;;1.58;1.48;;;;;;;28.13;28.11;101904.13;6251293;28;21413;-67
2023/05/12 14:28:43;;;;;;;2.28;1.80;;;;;;;27.96;27.84;101909.38;6255910;28;20236;-67
2023/05/12 14:32:05;;;;;;;3.65;2.13;;;;;;;28.29;28.65;101914.63;6243549;28;20248;-67
2023/05/12 14:35:27;;;;;;;2.63;2.42;;;;;;;28.54;27.99;101915.47;6249003;28;20232;-67
2023/05/12 14:38:49;;;;;;;6.45;3.33;;;;;;;28.26;28.87;101917.88;6243738;28;20341;-68
2023/05/12 14:42:10;;;;;;;2.63;2.42;;;;;;;28.46;28.83;101919.38;6248932;28;20533;-67
2023/05/12 14:45:31;;;;;;;3.55;2.17;;;;;;;28.33;29.24;101919.50;6258500;28;20224;-67
2023/05/12 14:48:52;;;;;;;5.38;3.40;;;;;;;28.41;29.75;101919.22;6214112;28;20237;-67
2023/05/12 14:52:13;;;;;;;4.57;3.60;;;;;;;27.86;29.70;101916.47;6238454;28;20228;-67
2023/05/12 14:55:36;;;;;;;4.60;3.90;;;;;;;28.10;30.37;101915.69;6248791;28;20224;-67
2023/05/12 14:58:57;;;;;;;7.25;3.72;;;;;;;28.23;30.16;101916.41;6245374;28;20273;-67
2023/05/12 15:02:17;;;;;;;3.20;2.40;;;;;;;27.93;30.07;101923.66;6239798;28;20224;-67
2023/05/12 15:05:39;;;;;;;2.55;2.35;;;;;;;27.70;30.92;101926.19;6255019;28;20232;-67
2023/05/12 15:08:59;;;;;;;4.60;3.40;;;;;;;27.96;30.32;101927.91;6258693;28;20243;-66
2023/05/12 15:12:22;;;;;;;2.45;2.25;;;;;;;27.66;30.20;101922.16;6239221;28;20782;-67
2023/05/12 15:15:43;;;;;;;4.78;2.22;;;;;;;27.74;30.53;101930.19;6252338;28;20485;-67
2023/05/12 15:19:04;;;;;;;4.07;3.05;;;;;;;27.60;30.70;101931.34;6258408;28;20502;-67
2023/05/12 15:22:24;;;;;;;5.40;2.90;;;;;;;27.52;31.04;101926.06;6264625;28;20489;-67
2023/05/12 15:25:46;;;;;;;2.78;2.30;;;;;;;27.58;30.48;101925.16;6258560;28;20224;-68
2023/05/12 15:29:08;;;;;;;2.15;2.05;;;;;;;27.42;30.90;101934.84;6249386;28;20311;-67
2023/05/12 15:32:29;;;;;;;2.75;2.33;;;;;;;26.99;30.60;101908.81;6243452;28;20231;-67
2023/05/12 15:35:50;;;;;;;2.20;2.00;;;;;;;27.18;30.79;101918.13;6251843;28;20235;-67
2023/05/12 15:39:11;;;;;;;3.88;1.92;;;;;;;27.25;31.00;101919.78;6256247;28;20594;-67
2023/05/12 15:42:32;;;;;;;10.05;3.03;;;;;;;26.98;31.52;101923.72;6237020;28;20222;-67
2023/05/12 15:45:54;;;;;;;1.95;1.77;;;;;;;27.10;31.43;101926.69;6238713;28;20224;-66
2023/05/12 15:49:15;;;;;;;3.05;2.30;;;;;;;26.83;32.00;101926.75;6243242;28;20255;-66
2023/05/12 15:52:36;;;;;;;2.40;2.20;;;;;;;26.38;31.87;101927.66;6240575;28;20561;-67
2023/05/12 15:56:00;;;;;;;4.90;3.05;;;;;;;26.46;32.29;101929.34;6243120;28;20232;-67
2023/05/12 15:59:21;;;;;;;4.60;4.25;;;;;;;26.64;32.51;101926.78;6243712;28;20235;-67
2023/05/12 16:02:43;;;;;;;2.08;1.98;;;;;;;26.71;32.58;101938.66;6241517;28;20314;-67
2023/05/12 16:06:05;;;;;;;1.73;1.67;;;;;;;26.29;32.90;101933.59;6237887;28;20236;-67
2023/05/12 16:09:26;;;;;;;6.63;2.38;;;;;;;26.27;33.23;101935.72;6221264;28;20231;-66
2023/05/12 16:12:46;;;;;;;3.17;1.90;;;;;;;26.21;33.66;101934.69;6243079;28;20236;-67
2023/05/12 16:16:08;;;;;;;1.40;1.30;;;;;;;26.08;33.85;101930.00;6235927;28;20223;-66
2023/05/12 16:19:30;;;;;;;3.35;3.05;;;;;;;26.14;33.09;101923.63;6267527;28;20223;-68
2023/05/12 16:22:52;;;;;;;4.68;2.47;;;;;;;26.15;33.55;101918.94;6240656;28;20248;-66
2023/05/12 16:26:12;;;;;;;2.67;2.47;;;;;;;26.34;33.39;101928.28;6241213;28;20239;-67
2023/05/12 16:29:33;;;;;;;3.92;2.97;;;;;;;25.95;33.81;101918.06;6246819;28;20660;-67
2023/05/12 16:32:55;;;;;;;3.45;2.20;;;;;;;26.08;33.75;101923.59;6239609;28;20227;-66
2023/05/12 16:36:17;;;;;;;3.90;2.28;;;;;;;25.64;33.33;101928.84;6235534;28;20236;-65
2023/05/12 16:39:38;;;;;;;9.70;3.05;;;;;;;25.18;33.22;101929.50;6244302;28;20310;-67
2023/05/12 16:42:58;;;;;;;3.00;2.38;;;;;;;25.27;33.43;101922.75;6226205;28;20229;-66
2023/05/12 16:46:19;;;;;;;6.93;2.03;;;;;;;25.29;33.98;101923.41;6243570;28;20689;-66
2023/05/12 16:49:40;;;;;;;2.85;2.65;;;;;;;25.21;33.91;101922.72;6255324;28;20269;-65
2023/05/12 16:53:01;;;;;;;3.03;2.38;;;;;;;25.23;34.28;101921.47;6257221;28;20224;-65
2023/05/12 16:56:22;;;;;;;4.55;2.28;;;;;;;25.16;34.92;101920.56;6234711;28;20826;-66
2023/05/12 16:59:43;;;;;;;2.30;2.10;;;;;;;24.89;35.00;101921.50;6255514;28;20227;-66
2023/05/12 17:03:04;;;;;;;2.75;2.30;;;;;;;24.79;35.03;101922.94;6245239;28;20274;-67
2023/05/12 17:06:25;;;;;;;3.22;2.00;;;;;;;24.41;34.56;101920.53;6243541;28;20733;-66
2023/05/12 17:09:47;;;;;;;1.77;1.67;;;;;;;24.20;34.54;101928.03;6253273;28;20232;-67
2023/05/12 17:13:08;;;;;;;4.95;2.13;;;;;;;24.32;34.80;101927.25;6266071;28;20224;-66
2023/05/12 17:16:29;;;;;;;3.20;2.00;;;;;;;24.30;34.94;101931.28;6245955;28;20804;-66
2023/05/12 17:19:50;;;;;;;2.00;1.90;;;;;;;24.38;34.83;101925.63;6247831;28;20248;-66
2023/05/12 17:23:11;;;;;;;5.60;3.00;;;;;;;23.95;35.46;101927.53;6238695;28;20227;-68
2023/05/12 17:26:34;;;;;;;3.20;2.40;;;;;;;23.78;35.87;101931.63;6238133;28;20225;-66
2023/05/12 17:29:55;;;;;;;2.85;2.28;;;;;;;23.70;36.80;101937.25;6255060;28;20223;-66
2023/05/12 17:33:16;;;;;;;2.53;1.83;;;;;;;23.34;37.11;101945.56;6248333;28;20254;-67
2023/05/12 17:36:37;;;;;;;3.70;2.00;;;;;;;23.32;37.14;101944.00;6243643;28;20228;-67
2023/05/12 17:39:59;;;;;;;2.42;2.22;;;;;;;23.14;37.71;101946.28;6252230;28;20259;-66
2023/05/12 17:43:21;;;;;;;3.17;2.42;;;;;;;22.72;36.38;101964.34;6262672;28;20251;-66
2023/05/12 17:46:42;;;;;;;1.83;1.52;;;;;;;22.71;36.73;101954.41;6238042;28;20606;-66
2023/05/12 17:50:03;;;;;;;1.90;1.73;;;;;;;22.52;36.63;101957.66;6248821;28;20228;-66
2023/05/12 17:53:23;;;;;;;1.90;1.80;;;;;;;22.32;36.47;101961.13;6248627;28;20802;-66
2023/05/12 17:56:44;;;;;;;4.25;2.30;;;;;;;22.14;36.38;101954.06;6248381;28;20231;-65
2023/05/12 18:00:08;;;;;;;2.22;2.03;;;;;;;21.94;36.13;101955.63;6248877;28;20255;-66
2023/05/12 18:03:35;;;;;;;4.03;2.15;;;;;;;22.10;36.97;101960.09;6232005;28;20556;-66
2023/05/12 18:06:56;;;;;;;2.20;2.00;;;;;;;22.27;37.35;101964.44;6227414;28;20539;-67
2023/05/12 18:10:16;;;;;;;2.33;1.98;;;;;;;21.98;36.71;101961.59;6252806;28;20235;-67
2023/05/12 18:13:37;;;;;;;4.90;2.45;;;;;;;21.92;37.78;101965.06;6256058;28;20323;-65
2023/05/12 18:16:59;;;;;;;2.95;2.00;;;;;;;21.84;37.94;101965.13;6238320;28;20227;-66
2023/05/12 18:20:20;;;;;;;2.92;1.92;;;;;;;21.80;37.51;101964.59;6246533;28;20316;-66
2023/05/12 18:23:41;;;;;;;17.70;2.65;;;;;;;21.68;37.14;101978.94;6251317;28;20227;-66